sensor_id;sensor_type;location;lat;lon;timestamp;pressure;altitude;pressure_sealevel;temperature;humidity
18504;BME280;9381;54.244;10.074;2022-08-21T00:02:23;101105.06;;;15.87;97.88
18504;BME280;9381;54.244;10.074;2022-08-21T00:07:24;101107.22;;;15.85;97.59
18504;BME280;9381;54.244;10.074;2022-08-21T00:12:26;101101.41;;;15.82;97.81
18504;BME280;9381;54.244;10.074;2022-08-21T00:17:27;101099.56;;;15.71;98.48
18504;BME280;9381;54.244;10.074;2022-08-21T00:22:27;101087.94;;;15.64;99.02
18504;BME280;9381;54.244;10.074;2022-08-21T00:27:28;101094.94;;;15.71;99.44
18504;BME280;9381;54.244;10.074;2022-08-21T00:32:29;101087.69;;;15.77;98.67
18504;BME280;9381;54.244;10.074;2022-08-21T00:37:30;101083.84;;;15.61;100.00
18504;BME280;9381;54.244;10.074;2022-08-21T00:42:30;101089.59;;;15.65;100.00
18504;BME280;9381;54.244;10.074;2022-08-21T00:47:30;101087.94;;;15.64;100.00
18504;BME280;9381;54.244;10.074;2022-08-21T00:52:32;101092.09;;;15.66;100.00
18504;BME280;9381;54.244;10.074;2022-08-21T00:57:38;101106.72;;;15.49;100.00
18504;BME280;9381;54.244;10.074;2022-08-21T01:02:40;101101.84;;;15.51;100.00
18504;BME280;9381;54.244;10.074;2022-08-21T01:07:41;101100.66;;;15.47;100.00
18504;BME280;9381;54.244;10.074;2022-08-21T01:12:42;101099.50;;;15.43;100.00
18504;BME280;9381;54.244;10.074;2022-08-21T01:17:42;101102.72;;;15.40;100.00
18504;BME280;9381;54.244;10.074;2022-08-21T01:22:43;101091.31;;;15.43;100.00
18504;BME280;9381;54.244;10.074;2022-08-21T01:27:43;101104.13;;;15.31;100.00
18504;BME280;9381;54.244;10.074;2022-08-21T01:32:44;101100.44;;;15.25;100.00
18504;BME280;9381;54.244;10.074;2022-08-21T01:37:47;101105.19;;;15.30;100.00
18504;BME280;9381;54.244;10.074;2022-08-21T01:42:47;101098.78;;;15.24;100.00
18504;BME280;9381;54.244;10.074;2022-08-21T01:47:48;101102.22;;;15.20;100.00
18504;BME280;9381;54.244;10.074;2022-08-21T01:52:49;101097.22;;;15.17;100.00
18504;BME280;9381;54.244;10.074;2022-08-21T01:57:49;101096.06;;;15.13;100.00
18504;BME280;9381;54.244;10.074;2022-08-21T02:02:51;101093.19;;;15.08;100.00
18504;BME280;9381;54.244;10.074;2022-08-21T02:07:53;101090.38;;;15.03;100.00
18504;BME280;9381;54.244;10.074;2022-08-21T02:12:54;101099.13;;;15.05;100.00
18504;BME280;9381;54.244;10.074;2022-08-21T02:17:58;101090.75;;;15.06;100.00
18504;BME280;9381;54.244;10.074;2022-08-21T02:22:59;101084.78;;;14.98;100.00
18504;BME280;9381;54.244;10.074;2022-08-21T02:28:04;101095.81;;;15.03;100.00
18504;BME280;9381;54.244;10.074;2022-08-21T02:33:05;101095.69;;;14.98;100.00
18504;BME280;9381;54.244;10.074;2022-08-21T02:38:08;101091.53;;;14.95;100.00
18504;BME280;9381;54.244;10.074;2022-08-21T02:43:09;101097.25;;;14.94;100.00
18504;BME280;9381;54.244;10.074;2022-08-21T02:48:14;101086.81;;;14.91;100.00
18504;BME280;9381;54.244;10.074;2022-08-21T02:53:16;101094.16;;;15.02;100.00
18504;BME280;9381;54.244;10.074;2022-08-21T02:58:24;101092.97;;;14.98;100.00
18504;BME280;9381;54.244;10.074;2022-08-21T03:03:27;101082.06;;;14.98;100.00
18504;BME280;9381;54.244;10.074;2022-08-21T03:08:27;101081.59;;;15.01;100.00
18504;BME280;9381;54.244;10.074;2022-08-21T03:13:28;101076.13;;;15.01;100.00
18504;BME280;9381;54.244;10.074;2022-08-21T03:18:28;101064.78;;;15.04;100.00
18504;BME280;9381;54.244;10.074;2022-08-21T03:23:28;101083.72;;;14.99;100.00
18504;BME280;9381;54.244;10.074;2022-08-21T03:28:30;101070.38;;;14.97;100.00
18504;BME280;9381;54.244;10.074;2022-08-21T03:33:31;101073.53;;;14.94;100.00
18504;BME280;9381;54.244;10.074;2022-08-21T03:38:33;101070.00;;;14.94;100.00
18504;BME280;9381;54.244;10.074;2022-08-21T03:43:35;101078.03;;;14.89;100.00
18504;BME280;9381;54.244;10.074;2022-08-21T03:48:36;101066.56;;;14.87;100.00
18504;BME280;9381;54.244;10.074;2022-08-21T03:53:36;101065.63;;;14.93;100.00
18504;BME280;9381;54.244;10.074;2022-08-21T03:58:37;101065.38;;;14.94;100.00
18504;BME280;9381;54.244;10.074;2022-08-21T04:03:38;101067.16;;;14.89;100.00
18504;BME280;9381;54.244;10.074;2022-08-21T04:08:38;101074.72;;;14.87;100.00
18504;BME280;9381;54.244;10.074;2022-08-21T04:13:38;101065.00;;;14.91;100.00
18504;BME280;9381;54.244;10.074;2022-08-21T04:18:40;101069.38;;;14.92;100.00
18504;BME280;9381;54.244;10.074;2022-08-21T04:23:40;101058.75;;;14.90;100.00
18504;BME280;9381;54.244;10.074;2022-08-21T04:28:41;101072.13;;;14.92;100.00
18504;BME280;9381;54.244;10.074;2022-08-21T04:33:41;101073.09;;;14.97;100.00
18504;BME280;9381;54.244;10.074;2022-08-21T04:38:42;101075.31;;;15.00;100.00
18504;BME280;9381;54.244;10.074;2022-08-21T04:43:42;101073.41;;;15.01;100.00
18504;BME280;9381;54.244;10.074;2022-08-21T04:48:42;101074.25;;;15.13;100.00
18504;BME280;9381;54.244;10.074;2022-08-21T04:53:46;101085.16;;;15.13;100.00
18504;BME280;9381;54.244;10.074;2022-08-21T04:58:48;101083.50;;;15.12;100.00
18504;BME280;9381;54.244;10.074;2022-08-21T05:03:55;101086.91;;;15.19;100.00
18504;BME280;9381;54.244;10.074;2022-08-21T05:08:56;101089.91;;;15.29;100.00
18504;BME280;9381;54.244;10.074;2022-08-21T05:13:58;101084.69;;;15.39;100.00
18504;BME280;9381;54.244;10.074;2022-08-21T05:18:58;101090.59;;;15.47;100.00
18504;BME280;9381;54.244;10.074;2022-08-21T05:23:58;101072.56;;;15.58;100.00
18504;BME280;9381;54.244;10.074;2022-08-21T05:28:59;101079.88;;;15.69;100.00
18504;BME280;9381;54.244;10.074;2022-08-21T05:33:59;101085.56;;;15.79;100.00
18504;BME280;9381;54.244;10.074;2022-08-21T05:39:00;101086.34;;;15.91;100.00
18504;BME280;9381;54.244;10.074;2022-08-21T05:44:00;101088.59;;;15.94;100.00
18504;BME280;9381;54.244;10.074;2022-08-21T05:49:01;101079.03;;;16.08;100.00
18504;BME280;9381;54.244;10.074;2022-08-21T05:54:01;101086.34;;;16.19;100.00
18504;BME280;9381;54.244;10.074;2022-08-21T05:59:02;101083.22;;;16.27;100.00
18504;BME280;9381;54.244;10.074;2022-08-21T06:04:03;101079.97;;;16.41;100.00
18504;BME280;9381;54.244;10.074;2022-08-21T06:09:04;101078.91;;;16.59;100.00
18504;BME280;9381;54.244;10.074;2022-08-21T06:14:05;101079.75;;;16.76;100.00
18504;BME280;9381;54.244;10.074;2022-08-21T06:19:06;101078.75;;;16.82;100.00
18504;BME280;9381;54.244;10.074;2022-08-21T06:24:07;101070.78;;;16.97;100.00
18504;BME280;9381;54.244;10.074;2022-08-21T06:29:07;101075.34;;;17.08;100.00
18504;BME280;9381;54.244;10.074;2022-08-21T06:34:10;101073.41;;;17.25;100.00
18504;BME280;9381;54.244;10.074;2022-08-21T06:39:11;101073.66;;;17.40;100.00
18504;BME280;9381;54.244;10.074;2022-08-21T06:44:16;101074.59;;;17.50;100.00
18504;BME280;9381;54.244;10.074;2022-08-21T06:49:16;101070.22;;;17.71;98.21
18504;BME280;9381;54.244;10.074;2022-08-21T06:54:17;101067.16;;;17.88;98.42
18504;BME280;9381;54.244;10.074;2022-08-21T06:59:17;101071.84;;;18.14;95.25
18504;BME280;9381;54.244;10.074;2022-08-21T07:04:18;101061.00;;;18.24;94.79
18504;BME280;9381;54.244;10.074;2022-08-21T07:09:18;101057.38;;;18.45;91.52
18504;BME280;9381;54.244;10.074;2022-08-21T07:14:18;101053.47;;;18.63;93.66
18504;BME280;9381;54.244;10.074;2022-08-21T07:19:19;101053.06;;;18.81;90.71
18504;BME280;9381;54.244;10.074;2022-08-21T07:24:20;101055.94;;;19.01;87.42
18504;BME280;9381;54.244;10.074;2022-08-21T07:29:20;101058.59;;;19.22;86.19
18504;BME280;9381;54.244;10.074;2022-08-21T07:34:20;101041.94;;;19.39;83.62
18504;BME280;9381;54.244;10.074;2022-08-21T07:39:21;101051.06;;;19.54;82.50
18504;BME280;9381;54.244;10.074;2022-08-21T07:44:21;101039.94;;;19.81;80.96
18504;BME280;9381;54.244;10.074;2022-08-21T07:49:22;101040.78;;;20.01;77.78
18504;BME280;9381;54.244;10.074;2022-08-21T07:54:22;101034.03;;;20.19;76.40
18504;BME280;9381;54.244;10.074;2022-08-21T07:59:22;101037.63;;;20.44;75.83
18504;BME280;9381;54.244;10.074;2022-08-21T08:04:23;101036.53;;;20.60;74.66
18504;BME280;9381;54.244;10.074;2022-08-21T08:09:23;101045.31;;;20.67;72.52
18504;BME280;9381;54.244;10.074;2022-08-21T08:14:24;101041.44;;;20.83;71.71
18504;BME280;9381;54.244;10.074;2022-08-21T08:19:24;101034.31;;;21.07;71.40
18504;BME280;9381;54.244;10.074;2022-08-21T08:24:25;101028.25;;;21.15;69.70
18504;BME280;9381;54.244;10.074;2022-08-21T08:29:25;101027.66;;;21.33;68.33
18504;BME280;9381;54.244;10.074;2022-08-21T08:34:25;101024.25;;;21.61;67.50
18504;BME280;9381;54.244;10.074;2022-08-21T08:39:26;101020.31;;;21.82;69.79
18504;BME280;9381;54.244;10.074;2022-08-21T08:44:26;101021.94;;;21.88;68.85
18504;BME280;9381;54.244;10.074;2022-08-21T08:49:40;101003.72;;;21.92;68.06
18504;BME280;9381;54.244;10.074;2022-08-21T08:54:45;100999.91;;;21.88;69.06
18504;BME280;9381;54.244;10.074;2022-08-21T08:59:52;100988.97;;;22.16;69.54
18504;BME280;9381;54.244;10.074;2022-08-21T09:04:54;100998.84;;;22.22;66.91
18504;BME280;9381;54.244;10.074;2022-08-21T09:10:16;100999.13;;;22.21;67.40
18504;BME280;9381;54.244;10.074;2022-08-21T09:26:18;100990.19;;;22.72;67.43
18504;BME280;9381;54.244;10.074;2022-08-21T09:31:23;100995.16;;;22.70;66.74
18504;BME280;9381;54.244;10.074;2022-08-21T09:36:40;100996.16;;;22.84;66.06
18504;BME280;9381;54.244;10.074;2022-08-21T09:41:41;100988.09;;;23.40;66.43
18504;BME280;9381;54.244;10.074;2022-08-21T09:46:50;100978.06;;;23.91;64.54
18504;BME280;9381;54.244;10.074;2022-08-21T09:51:52;100965.75;;;24.20;62.49
18504;BME280;9381;54.244;10.074;2022-08-21T09:56:59;100978.31;;;24.44;61.97
18504;BME280;9381;54.244;10.074;2022-08-21T10:02:33;100974.06;;;24.84;61.88
18504;BME280;9381;54.244;10.074;2022-08-21T10:07:37;100973.19;;;25.02;62.94
18504;BME280;9381;54.244;10.074;2022-08-21T10:12:55;100971.69;;;25.36;61.37
18504;BME280;9381;54.244;10.074;2022-08-21T10:18:06;100957.81;;;25.63;60.59
18504;BME280;9381;54.244;10.074;2022-08-21T10:23:38;100954.81;;;26.09;58.80
18504;BME280;9381;54.244;10.074;2022-08-21T10:34:01;100955.56;;;26.89;54.11
18504;BME280;9381;54.244;10.074;2022-08-21T10:44:35;100955.97;;;27.04;53.33
18504;BME280;9381;54.244;10.074;2022-08-21T10:55:12;100968.72;;;27.05;49.07
18504;BME280;9381;54.244;10.074;2022-08-21T11:00:21;100968.97;;;27.73;47.89
18504;BME280;9381;54.244;10.074;2022-08-21T11:05:29;100974.13;;;27.96;45.79
18504;BME280;9381;54.244;10.074;2022-08-21T11:10:46;100972.31;;;28.43;45.49
18504;BME280;9381;54.244;10.074;2022-08-21T11:15:55;100975.47;;;29.13;44.08
18504;BME280;9381;54.244;10.074;2022-08-21T11:21:06;100976.88;;;27.88;42.83
18504;BME280;9381;54.244;10.074;2022-08-21T11:26:17;100971.31;;;28.05;45.21
18504;BME280;9381;54.244;10.074;2022-08-21T11:31:44;100968.31;;;28.95;44.99
18504;BME280;9381;54.244;10.074;2022-08-21T11:37:19;100973.69;;;29.46;42.29
18504;BME280;9381;54.244;10.074;2022-08-21T11:48:00;100974.13;;;28.47;42.15
18504;BME280;9381;54.244;10.074;2022-08-21T11:53:16;100978.19;;;27.82;40.97
18504;BME280;9381;54.244;10.074;2022-08-21T11:58:27;100978.91;;;27.49;40.97
18504;BME280;9381;54.244;10.074;2022-08-21T12:03:34;100971.22;;;28.44;41.12
18504;BME280;9381;54.244;10.074;2022-08-21T12:08:41;100965.69;;;28.90;38.11
18504;BME280;9381;54.244;10.074;2022-08-21T12:29:21;100977.88;;;27.92;40.10
18504;BME280;9381;54.244;10.074;2022-08-21T12:34:56;100952.91;;;29.93;40.35
18504;BME280;9381;54.244;10.074;2022-08-21T12:40:04;100972.22;;;29.40;38.56
18504;BME280;9381;54.244;10.074;2022-08-21T12:45:23;100949.22;;;29.80;39.57
18504;BME280;9381;54.244;10.074;2022-08-21T12:50:36;100955.75;;;30.46;37.08
18504;BME280;9381;54.244;10.074;2022-08-21T12:55:40;100967.63;;;29.06;39.14
18504;BME280;9381;54.244;10.074;2022-08-21T13:00:48;100969.56;;;27.45;43.53
18504;BME280;9381;54.244;10.074;2022-08-21T13:05:49;100959.53;;;27.74;44.04
18504;BME280;9381;54.244;10.074;2022-08-21T13:10:59;100953.81;;;28.30;41.67
18504;BME280;9381;54.244;10.074;2022-08-21T13:16:05;100957.22;;;27.76;40.96
18504;BME280;9381;54.244;10.074;2022-08-21T13:21:12;100954.41;;;28.86;40.58
18504;BME280;9381;54.244;10.074;2022-08-21T13:26:15;100952.31;;;28.75;40.34
18504;BME280;9381;54.244;10.074;2022-08-21T13:31:29;100950.38;;;28.50;40.87
18504;BME280;9381;54.244;10.074;2022-08-21T13:36:36;100954.31;;;27.81;41.03
18504;BME280;9381;54.244;10.074;2022-08-21T13:41:40;100945.66;;;27.91;41.57
18504;BME280;9381;54.244;10.074;2022-08-21T13:46:42;100945.00;;;27.94;43.60
18504;BME280;9381;54.244;10.074;2022-08-21T13:51:44;100948.13;;;27.06;42.63
18504;BME280;9381;54.244;10.074;2022-08-21T13:56:46;100941.81;;;27.70;40.85
18504;BME280;9381;54.244;10.074;2022-08-21T14:02:01;100936.47;;;28.16;39.34
18504;BME280;9381;54.244;10.074;2022-08-21T14:07:31;100946.59;;;27.78;38.95
18504;BME280;9381;54.244;10.074;2022-08-21T14:12:42;100944.38;;;27.41;42.70
18504;BME280;9381;54.244;10.074;2022-08-21T14:17:45;100942.13;;;27.60;42.87
18504;BME280;9381;54.244;10.074;2022-08-21T14:22:48;100937.28;;;27.74;44.39
18504;BME280;9381;54.244;10.074;2022-08-21T14:28:11;100934.41;;;27.32;44.05
18504;BME280;9381;54.244;10.074;2022-08-21T14:33:35;100945.75;;;27.13;46.96
18504;BME280;9381;54.244;10.074;2022-08-21T14:38:37;100942.13;;;27.43;45.83
18504;BME280;9381;54.244;10.074;2022-08-21T14:43:37;100953.69;;;27.06;46.32
18504;BME280;9381;54.244;10.074;2022-08-21T14:48:38;100950.91;;;27.06;45.88
18504;BME280;9381;54.244;10.074;2022-08-21T14:53:39;100944.47;;;26.89;47.12
18504;BME280;9381;54.244;10.074;2022-08-21T14:58:42;100956.16;;;26.33;49.22
18504;BME280;9381;54.244;10.074;2022-08-21T15:03:43;100948.28;;;26.05;51.81
18504;BME280;9381;54.244;10.074;2022-08-21T15:08:43;100954.06;;;25.95;53.40
18504;BME280;9381;54.244;10.074;2022-08-21T15:13:44;100947.28;;;25.87;54.76
18504;BME280;9381;54.244;10.074;2022-08-21T15:18:44;100956.13;;;25.89;55.02
18504;BME280;9381;54.244;10.074;2022-08-21T15:23:45;100952.34;;;25.58;54.49
18504;BME280;9381;54.244;10.074;2022-08-21T15:28:45;100958.63;;;25.23;56.72
18504;BME280;9381;54.244;10.074;2022-08-21T15:33:45;100958.84;;;25.27;57.12
18504;BME280;9381;54.244;10.074;2022-08-21T15:38:46;100953.06;;;25.10;56.00
18504;BME280;9381;54.244;10.074;2022-08-21T15:43:51;100961.22;;;25.33;57.20
18504;BME280;9381;54.244;10.074;2022-08-21T15:48:53;100959.69;;;25.27;56.33
18504;BME280;9381;54.244;10.074;2022-08-21T15:53:53;100959.94;;;25.12;58.89
18504;BME280;9381;54.244;10.074;2022-08-21T15:59:03;100962.31;;;25.32;59.47
18504;BME280;9381;54.244;10.074;2022-08-21T16:04:05;100962.75;;;25.26;59.75
18504;BME280;9381;54.244;10.074;2022-08-21T16:09:06;100963.38;;;25.23;60.00
18504;BME280;9381;54.244;10.074;2022-08-21T16:14:07;100956.66;;;25.10;61.39
18504;BME280;9381;54.244;10.074;2022-08-21T16:19:09;100962.53;;;25.36;61.66
18504;BME280;9381;54.244;10.074;2022-08-21T16:24:10;100971.25;;;25.29;62.24
18504;BME280;9381;54.244;10.074;2022-08-21T16:29:11;100968.06;;;25.22;61.31
18504;BME280;9381;54.244;10.074;2022-08-21T16:34:15;100977.06;;;24.87;61.33
18504;BME280;9381;54.244;10.074;2022-08-21T16:39:16;100988.28;;;24.77;63.06
18504;BME280;9381;54.244;10.074;2022-08-21T16:44:21;100981.97;;;24.90;63.62
18504;BME280;9381;54.244;10.074;2022-08-21T16:49:21;100991.03;;;24.77;64.24
18504;BME280;9381;54.244;10.074;2022-08-21T16:54:22;100987.50;;;24.90;64.52
18504;BME280;9381;54.244;10.074;2022-08-21T16:59:23;100989.06;;;24.64;65.37
18504;BME280;9381;54.244;10.074;2022-08-21T17:04:23;100988.50;;;24.31;64.52
18504;BME280;9381;54.244;10.074;2022-08-21T17:09:25;100990.06;;;24.37;64.72
18504;BME280;9381;54.244;10.074;2022-08-21T17:14:25;100990.22;;;24.27;64.02
18504;BME280;9381;54.244;10.074;2022-08-21T17:19:25;100995.41;;;24.15;63.14
18504;BME280;9381;54.244;10.074;2022-08-21T17:24:25;101002.41;;;24.26;63.04
18504;BME280;9381;54.244;10.074;2022-08-21T17:29:29;100996.81;;;24.12;63.49
18504;BME280;9381;54.244;10.074;2022-08-21T17:34:30;101013.56;;;24.02;63.33
18504;BME280;9381;54.244;10.074;2022-08-21T17:39:30;101013.63;;;23.97;65.62
18504;BME280;9381;54.244;10.074;2022-08-21T17:44:31;101007.44;;;23.82;66.69
18504;BME280;9381;54.244;10.074;2022-08-21T17:49:31;101014.66;;;23.59;68.44
18504;BME280;9381;54.244;10.074;2022-08-21T17:54:33;101019.94;;;23.56;68.71
18504;BME280;9381;54.244;10.074;2022-08-21T17:59:33;101027.50;;;23.45;69.54
18504;BME280;9381;54.244;10.074;2022-08-21T18:04:33;101025.09;;;23.39;69.79
18504;BME280;9381;54.244;10.074;2022-08-21T18:09:34;101024.63;;;23.32;70.21
18504;BME280;9381;54.244;10.074;2022-08-21T18:14:35;101033.03;;;23.22;70.71
18504;BME280;9381;54.244;10.074;2022-08-21T18:19:37;101043.84;;;23.13;71.08
18504;BME280;9381;54.244;10.074;2022-08-21T18:24:38;101050.53;;;23.07;71.64
18504;BME280;9381;54.244;10.074;2022-08-21T18:29:38;101043.72;;;23.00;71.86
18504;BME280;9381;54.244;10.074;2022-08-21T18:34:40;101048.75;;;22.93;72.17
18504;BME280;9381;54.244;10.074;2022-08-21T18:39:40;101057.63;;;22.85;73.09
18504;BME280;9381;54.244;10.074;2022-08-21T18:44:44;101059.63;;;22.79;73.47
18504;BME280;9381;54.244;10.074;2022-08-21T18:49:45;101057.69;;;22.80;74.26
18504;BME280;9381;54.244;10.074;2022-08-21T18:54:45;101053.59;;;22.72;74.61
18504;BME280;9381;54.244;10.074;2022-08-21T18:59:46;101061.69;;;22.64;75.03
18504;BME280;9381;54.244;10.074;2022-08-21T19:04:46;101067.22;;;22.59;75.33
18504;BME280;9381;54.244;10.074;2022-08-21T19:09:47;101063.44;;;22.50;75.71
18504;BME280;9381;54.244;10.074;2022-08-21T19:14:47;101081.19;;;22.29;76.82
18504;BME280;9381;54.244;10.074;2022-08-21T19:19:48;101077.72;;;22.13;77.21
18504;BME280;9381;54.244;10.074;2022-08-21T19:24:48;101086.31;;;22.02;77.80
18504;BME280;9381;54.244;10.074;2022-08-21T19:29:49;101080.25;;;22.05;77.74
18504;BME280;9381;54.244;10.074;2022-08-21T19:34:49;101081.09;;;22.00;77.12
18504;BME280;9381;54.244;10.074;2022-08-21T19:39:50;101091.06;;;21.91;77.50
18504;BME280;9381;54.244;10.074;2022-08-21T19:44:50;101087.78;;;21.79;77.79
18504;BME280;9381;54.244;10.074;2022-08-21T19:49:53;101087.28;;;21.72;78.54
18504;BME280;9381;54.244;10.074;2022-08-21T19:54:55;101074.91;;;21.65;78.98
18504;BME280;9381;54.244;10.074;2022-08-21T19:59:56;101087.03;;;21.59;79.22
18504;BME280;9381;54.244;10.074;2022-08-21T20:04:56;101098.88;;;21.54;79.62
18504;BME280;9381;54.244;10.074;2022-08-21T20:09:56;101104.09;;;21.46;80.09
18504;BME280;9381;54.244;10.074;2022-08-21T20:14:57;101098.06;;;21.39;80.57
18504;BME280;9381;54.244;10.074;2022-08-21T20:19:58;101117.88;;;21.31;81.18
18504;BME280;9381;54.244;10.074;2022-08-21T20:24:58;101118.19;;;21.14;81.06
18504;BME280;9381;54.244;10.074;2022-08-21T20:29:59;101116.28;;;21.00;81.92
18504;BME280;9381;54.244;10.074;2022-08-21T20:34:59;101112.94;;;20.73;83.24
18504;BME280;9381;54.244;10.074;2022-08-21T20:40:00;101116.22;;;20.50;84.56
18504;BME280;9381;54.244;10.074;2022-08-21T20:45:00;101117.81;;;20.31;85.86
18504;BME280;9381;54.244;10.074;2022-08-21T20:50:06;101117.22;;;20.19;86.46
18504;BME280;9381;54.244;10.074;2022-08-21T20:55:13;101122.69;;;20.09;87.14
18504;BME280;9381;54.244;10.074;2022-08-21T21:00:17;101128.19;;;20.04;88.04
18504;BME280;9381;54.244;10.074;2022-08-21T21:05:23;101130.84;;;19.99;88.99
18504;BME280;9381;54.244;10.074;2022-08-21T21:10:42;101126.38;;;19.83;89.57
18504;BME280;9381;54.244;10.074;2022-08-21T21:15:52;101129.88;;;19.69;90.24
18504;BME280;9381;54.244;10.074;2022-08-21T21:21:03;101136.78;;;19.71;90.47
18504;BME280;9381;54.244;10.074;2022-08-21T21:26:33;101139.69;;;19.55;90.91
18504;BME280;9381;54.244;10.074;2022-08-21T21:31:37;101136.91;;;19.45;91.39
18504;BME280;9381;54.244;10.074;2022-08-21T21:37:20;101139.53;;;19.35;91.32
18504;BME280;9381;54.244;10.074;2022-08-21T21:48:02;101141.81;;;19.11;93.38
18504;BME280;9381;54.244;10.074;2022-08-21T21:53:24;101153.28;;;19.03;93.51
18504;BME280;9381;54.244;10.074;2022-08-21T22:09:15;101166.84;;;18.88;95.78
18504;BME280;9381;54.244;10.074;2022-08-21T22:14:18;101154.50;;;18.86;96.30
18504;BME280;9381;54.244;10.074;2022-08-21T22:19:28;101164.06;;;18.83;96.44
18504;BME280;9381;54.244;10.074;2022-08-21T22:24:34;101160.75;;;18.81;96.64
18504;BME280;9381;54.244;10.074;2022-08-21T22:29:47;101168.72;;;18.83;96.63
18504;BME280;9381;54.244;10.074;2022-08-21T22:40:07;101167.25;;;18.75;97.44
18504;BME280;9381;54.244;10.074;2022-08-21T22:45:09;101167.25;;;18.75;97.86
18504;BME280;9381;54.244;10.074;2022-08-21T22:55:26;101171.56;;;18.66;98.04
18504;BME280;9381;54.244;10.074;2022-08-21T23:00:59;101174.19;;;18.56;98.05
18504;BME280;9381;54.244;10.074;2022-08-21T23:06:04;101177.91;;;18.45;98.24
18504;BME280;9381;54.244;10.074;2022-08-21T23:11:39;101174.09;;;18.46;98.22
18504;BME280;9381;54.244;10.074;2022-08-21T23:16:57;101172.13;;;18.42;98.26
18504;BME280;9381;54.244;10.074;2022-08-21T23:28:06;101176.53;;;18.21;98.48
18504;BME280;9381;54.244;10.074;2022-08-21T23:33:37;101189.16;;;18.06;98.65
18504;BME280;9381;54.244;10.074;2022-08-21T23:44:10;101183.38;;;18.02;98.02
18504;BME280;9381;54.244;10.074;2022-08-21T23:49:47;101175.63;;;17.94;98.04
